Time;durP1;ratioP1;P1;durP2;ratioP2;P2;SDS_P1;SDS_P2;PMS_P1;PMS_P2;Temp;Humidity;BMP_temperature;BMP_pressure;BME280_temperature;BME280_humidity;BME280_pressure;Samples;Min_cycle;Max_cycle;Signal;HPM_P1;HPM_P2
2022/10/22 00:01:19;;;;;;;44.25;27.42;;;16.50;78.30;;;;;;5056660;28;20395;-14
2022/10/22 00:03:45;;;;;;;42.85;25.45;;;16.40;78.80;;;;;;5056643;28;20103;-14
2022/10/22 00:06:11;;;;;;;37.75;25.40;;;16.40;78.40;;;;;;5056832;28;20098;-17
2022/10/22 00:08:38;;;;;;;42.10;25.15;;;16.40;78.70;;;;;;5056461;28;20453;-16
2022/10/22 00:11:14;;;;;;;41.72;26.23;;;16.40;78.80;;;;;;5056571;28;20025;-15
2022/10/22 00:13:40;;;;;;;38.80;25.30;;;16.40;79.10;;;;;;5056838;28;20104;-14
2022/10/22 00:16:07;;;;;;;38.67;23.85;;;16.40;79.70;;;;;;5056695;28;20030;-15
2022/10/22 00:18:33;;;;;;;37.70;25.08;;;16.40;79.40;;;;;;5056271;28;20484;-15
2022/10/22 00:20:59;;;;;;;35.50;23.48;;;16.40;79.40;;;;;;5056392;28;20102;-16
2022/10/22 00:23:25;;;;;;;35.83;23.85;;;16.40;79.40;;;;;;5056522;28;20410;-15
2022/10/22 00:25:53;;;;;;;34.38;22.13;;;16.40;79.20;;;;;;5056048;28;20036;-16
2022/10/22 00:28:19;;;;;;;36.97;22.83;;;16.40;79.50;;;;;;5056273;28;20133;-14
2022/10/22 00:30:45;;;;;;;39.83;23.13;;;16.40;79.60;;;;;;5056263;28;20029;-15
2022/10/22 00:33:11;;;;;;;37.90;24.25;;;16.40;79.60;;;;;;5056538;28;20033;-15
2022/10/22 00:35:38;;;;;;;36.40;23.45;;;16.40;79.80;;;;;;5055743;28;20056;-15
2022/10/22 00:38:04;;;;;;;34.05;22.27;;;16.50;79.70;;;;;;5056697;28;20024;-15
2022/10/22 00:40:30;;;;;;;30.83;20.27;;;16.50;79.70;;;;;;5055760;28;20041;-14
2022/10/22 00:42:56;;;;;;;30.98;20.85;;;16.50;79.20;;;;;;5055765;28;20067;-14
2022/10/22 00:45:25;;;;;;;27.30;17.80;;;16.50;79.10;;;;;;5056130;28;20025;-14
2022/10/22 00:47:56;;;;;;;35.85;21.70;;;16.60;79.30;;;;;;5056080;28;20032;-15
2022/10/22 00:50:28;;;;;;;33.25;22.38;;;16.70;79.10;;;;;;5055741;28;20059;-14
2022/10/22 00:52:56;;;;;;;37.78;23.00;;;16.70;78.90;;;;;;5055582;28;20021;-16
2022/10/22 00:55:25;;;;;;;27.45;19.05;;;16.70;79.30;;;;;;5055783;28;20021;-16
2022/10/22 00:57:54;;;;;;;30.50;19.70;;;16.70;78.60;;;;;;5054341;28;20507;-15
2022/10/22 01:00:20;;;;;;;33.20;20.45;;;16.70;78.70;;;;;;5056164;28;20059;-15
2022/10/22 01:02:49;;;;;;;30.48;20.10;;;16.80;79.00;;;;;;5055539;28;20116;-14
2022/10/22 01:05:16;;;;;;;34.80;21.88;;;16.80;78.80;;;;;;5055534;28;20025;-14
2022/10/22 01:07:53;;;;;;;26.95;17.98;;;16.80;78.90;;;;;;5054691;28;20049;-16
2022/10/22 01:10:24;;;;;;;29.35;18.35;;;16.80;78.50;;;;;;5054142;28;20562;-15
2022/10/22 01:13:08;;;;;;;25.95;18.13;;;16.90;78.30;;;;;;5055081;28;20443;-17
2022/10/22 01:15:58;;;;;;;;;;;16.90;78.30;;;;;;5056040;28;20060;-14
2022/10/22 01:18:39;;;;;;;28.30;17.90;;;16.90;79.00;;;;;;5055991;28;19909;-15
2022/10/22 01:21:13;;;;;;;31.25;19.92;;;16.90;78.40;;;;;;5055025;28;20032;-14
2022/10/22 01:24:16;;;;;;;26.65;16.83;;;16.90;78.90;;;;;;5055448;28;20032;-14
2022/10/22 01:26:48;;;;;;;25.23;16.42;;;16.90;78.40;;;;;;5055408;28;20040;-15
2022/10/22 01:29:30;;;;;;;31.77;20.55;;;16.90;78.50;;;;;;5055082;28;20032;-15
2022/10/22 01:32:06;;;;;;;31.20;19.90;;;16.90;79.10;;;;;;5055072;28;20029;-15
2022/10/22 01:34:33;;;;;;;29.02;19.35;;;16.90;79.40;;;;;;5055183;28;20025;-15
2022/10/22 01:37:00;;;;;;;27.85;18.90;;;16.90;79.10;;;;;;5054517;28;20049;-16
2022/10/22 01:39:28;;;;;;;25.85;17.77;;;16.90;79.10;;;;;;5055050;28;20040;-15
2022/10/22 01:41:55;;;;;;;31.85;19.70;;;16.90;79.00;;;;;;5054778;28;20480;-16
2022/10/22 01:44:26;;;;;;;28.73;19.25;;;16.90;79.00;;;;;;5054730;28;20025;-15
2022/10/22 01:47:03;;;;;;;30.17;19.65;;;16.90;79.00;;;;;;5054650;28;20049;-15
2022/10/22 01:49:59;;;;;;;31.77;20.75;;;16.90;79.50;;;;;;5055188;28;20021;-15
2022/10/22 01:52:56;;;;;;;28.88;19.55;;;16.90;79.80;;;;;;5054548;28;20078;-15
2022/10/22 01:55:33;;;;;;;27.35;18.85;;;16.90;80.10;;;;;;5054425;28;20028;-15
2022/10/22 01:58:23;;;;;;;25.02;15.73;;;16.90;79.90;;;;;;5054467;28;20063;-15
2022/10/22 02:01:28;;;;;;;26.95;18.08;;;16.90;79.50;;;;;;5054632;28;20104;-15
2022/10/22 02:04:04;;;;;;;;;;;16.90;79.40;;;;;;5053816;28;20104;-15
2022/10/22 02:06:33;;;;;;;25.20;15.15;;;16.90;79.60;;;;;;5054387;28;19954;-14
2022/10/22 02:09:01;;;;;;;20.35;14.23;;;16.90;79.20;;;;;;5054311;28;20025;-17
2022/10/22 02:11:27;;;;;;;23.25;15.88;;;16.90;79.20;;;;;;5054245;28;20434;-14
2022/10/22 02:14:00;;;;;;;26.45;17.67;;;16.90;79.10;;;;;;5054505;28;20511;-14
2022/10/22 02:16:40;;;;;;;28.70;18.93;;;16.90;79.20;;;;;;5054484;28;20021;-16
2022/10/22 02:19:27;;;;;;;32.25;20.13;;;16.90;79.80;;;;;;5052571;28;20040;-15
2022/10/22 02:21:54;;;;;;;35.08;21.25;;;16.90;80.90;;;;;;5054143;28;20483;-15
2022/10/22 02:24:21;;;;;;;30.42;19.48;;;16.90;81.00;;;;;;5053853;28;20108;-16
2022/10/22 02:27:01;;;;;;;30.63;19.05;;;16.90;81.20;;;;;;5053989;28;20510;-15
2022/10/22 02:29:52;;;;;;;33.00;20.77;;;16.90;81.30;;;;;;5054260;28;20031;-14
2022/10/22 02:32:23;;;;;;;29.92;19.77;;;16.80;81.50;;;;;;5049773;28;20040;-14
2022/10/22 02:34:50;;;;;;;39.15;22.88;;;16.80;82.30;;;;;;5053357;28;20407;-16
2022/10/22 02:37:18;;;;;;;35.65;20.50;;;16.80;83.00;;;;;;5053687;28;20037;-15
2022/10/22 02:39:44;;;;;;;32.80;19.63;;;16.80;82.60;;;;;;5054250;28;20052;-14
2022/10/22 02:42:11;;;;;;;33.03;19.98;;;16.80;82.60;;;;;;5053642;28;20029;-15
2022/10/22 02:44:37;;;;;;;27.05;19.08;;;16.90;83.00;;;;;;5053611;28;20025;-15
2022/10/22 02:47:03;;;;;;;35.42;21.10;;;16.80;83.20;;;;;;5053405;28;20031;-16
2022/10/22 02:49:30;;;;;;;30.73;19.90;;;16.80;83.70;;;;;;5053572;28;20107;-15
2022/10/22 02:51:56;;;;;;;32.72;20.13;;;16.90;83.40;;;;;;5054052;28;20074;-14
2022/10/22 02:54:22;;;;;;;27.45;18.70;;;16.90;83.60;;;;;;5053364;28;20078;-14
2022/10/22 02:56:48;;;;;;;37.30;20.40;;;16.90;83.70;;;;;;5053601;28;20033;-17
2022/10/22 02:59:14;;;;;;;24.55;17.30;;;16.90;83.90;;;;;;5053163;28;20037;-15
2022/10/22 03:01:40;;;;;;;28.80;19.63;;;16.90;83.70;;;;;;5052153;28;20021;-14
2022/10/22 03:04:06;;;;;;;27.63;18.50;;;16.90;84.30;;;;;;5053341;28;20027;-14
2022/10/22 03:06:32;;;;;;;32.25;17.77;;;16.90;83.80;;;;;;5053261;28;20021;-14
2022/10/22 03:08:58;;;;;;;27.02;17.33;;;16.90;83.80;;;;;;5051746;28;20117;-14
2022/10/22 03:11:24;;;;;;;28.00;17.30;;;16.90;83.70;;;;;;5053209;28;20118;-14
2022/10/22 03:13:50;;;;;;;27.65;18.02;;;16.90;83.60;;;;;;5053443;28;20037;-17
2022/10/22 03:16:16;;;;;;;31.88;19.00;;;16.90;83.80;;;;;;5053194;28;20017;-17
2022/10/22 03:18:42;;;;;;;27.70;17.63;;;16.90;84.20;;;;;;5053190;28;20037;-16
2022/10/22 03:21:33;;;;;;;28.85;17.17;;;16.90;84.00;;;;;;5052902;28;20037;-15
2022/10/22 03:24:03;;;;;;;28.17;18.35;;;16.90;84.00;;;;;;5053060;28;20018;-15
2022/10/22 03:26:30;;;;;;;26.15;17.50;;;16.90;84.70;;;;;;5053301;28;20025;-17
2022/10/22 03:28:56;;;;;;;26.40;17.10;;;16.90;84.60;;;;;;5052887;28;20024;-15
2022/10/22 03:31:22;;;;;;;28.48;17.52;;;16.90;84.90;;;;;;5052391;28;20071;-15
2022/10/22 03:33:48;;;;;;;33.63;20.20;;;16.90;84.80;;;;;;5053510;28;20025;-15
2022/10/22 03:36:14;;;;;;;31.25;19.48;;;16.90;85.40;;;;;;5052956;28;20109;-17
2022/10/22 03:38:41;;;;;;;27.63;17.90;;;16.80;85.60;;;;;;5052854;28;20044;-17
2022/10/22 03:41:08;;;;;;;33.30;18.88;;;16.80;85.90;;;;;;5052587;28;20063;-15
2022/10/22 03:43:36;;;;;;;27.40;19.30;;;16.80;86.20;;;;;;5052807;28;20111;-14
2022/10/22 03:46:02;;;;;;;29.13;18.70;;;16.80;86.30;;;;;;5052758;28;20033;-14
2022/10/22 03:48:28;;;;;;;32.92;19.10;;;16.80;86.40;;;;;;5052818;28;20018;-14
2022/10/22 03:50:54;;;;;;;31.42;18.35;;;16.80;86.40;;;;;;5052633;28;20033;-15
2022/10/22 03:53:20;;;;;;;32.90;20.13;;;16.70;86.50;;;;;;5053430;28;20025;-16
2022/10/22 03:55:46;;;;;;;32.72;18.48;;;16.80;86.90;;;;;;5052760;28;20021;-15
2022/10/22 03:58:12;;;;;;;32.80;19.60;;;16.70;86.80;;;;;;5052745;28;20522;-15
2022/10/22 04:00:38;;;;;;;29.05;19.17;;;16.70;87.20;;;;;;5052664;28;20128;-15
2022/10/22 04:03:04;;;;;;;36.58;20.45;;;16.70;87.30;;;;;;5052545;28;20080;-14
2022/10/22 04:05:32;;;;;;;35.30;19.10;;;16.70;87.40;;;;;;5052653;28;20483;-14
2022/10/22 04:07:59;;;;;;;34.55;19.35;;;16.70;87.40;;;;;;5053075;28;20427;-15
2022/10/22 04:10:25;;;;;;;32.40;19.98;;;16.70;87.40;;;;;;5052600;28;20032;-14
2022/10/22 04:12:51;;;;;;;36.70;19.67;;;16.70;87.30;;;;;;5052369;28;20029;-16
2022/10/22 04:15:17;;;;;;;34.67;21.38;;;16.70;87.40;;;;;;5053134;28;20021;-16
2022/10/22 04:17:43;;;;;;;32.30;19.65;;;16.70;87.30;;;;;;5052381;28;20535;-15
2022/10/22 04:20:10;;;;;;;35.88;19.05;;;16.70;87.60;;;;;;5052514;28;20473;-15
2022/10/22 04:22:36;;;;;;;27.73;16.83;;;16.70;87.50;;;;;;5051250;28;20576;-15
2022/10/22 04:25:03;;;;;;;27.42;17.60;;;16.70;87.20;;;;;;5052246;28;20033;-16
2022/10/22 04:27:31;;;;;;;31.85;18.20;;;16.80;87.20;;;;;;5052430;28;20056;-17
2022/10/22 04:29:57;;;;;;;33.72;19.52;;;16.80;87.30;;;;;;5052637;28;20017;-15
2022/10/22 04:32:24;;;;;;;32.35;18.55;;;16.90;87.40;;;;;;5052388;28;20029;-15
2022/10/22 04:34:50;;;;;;;30.83;18.63;;;16.80;87.40;;;;;;5052244;28;20033;-16
2022/10/22 04:37:16;;;;;;;31.85;19.35;;;16.80;87.40;;;;;;5051093;28;20044;-15
2022/10/22 04:39:42;;;;;;;32.40;19.98;;;16.80;87.50;;;;;;5052259;28;20035;-14
2022/10/22 04:42:08;;;;;;;26.98;18.40;;;16.80;87.30;;;;;;5052791;28;20029;-16
2022/10/22 04:44:34;;;;;;;30.23;18.38;;;16.80;87.30;;;;;;5055100;28;20132;-15
2022/10/22 04:47:00;;;;;;;29.40;18.50;;;16.80;87.30;;;;;;5055634;28;20037;-15
2022/10/22 04:49:26;;;;;;;31.70;17.88;;;16.80;87.00;;;;;;5056045;28;20025;-16
2022/10/22 04:51:52;;;;;;;25.88;15.52;;;16.80;86.90;;;;;;5056121;28;20028;-16
2022/10/22 04:54:18;;;;;;;32.35;18.15;;;16.90;86.70;;;;;;5056254;28;20025;-17
2022/10/22 04:56:44;;;;;;;29.95;19.02;;;16.90;86.80;;;;;;5055688;28;20036;-15
2022/10/22 04:59:12;;;;;;;33.13;18.88;;;16.90;86.60;;;;;;5054506;28;20033;-16
2022/10/22 05:01:41;;;;;;;30.45;17.75;;;16.90;86.70;;;;;;5055550;28;20038;-15
2022/10/22 05:04:10;;;;;;;36.13;20.55;;;16.90;86.60;;;;;;5056019;28;20052;-16
2022/10/22 05:06:37;;;;;;;32.60;19.05;;;16.90;86.70;;;;;;5055600;28;20017;-15
2022/10/22 05:09:06;;;;;;;33.20;19.02;;;16.90;87.00;;;;;;5055165;28;20105;-17
2022/10/22 05:11:36;;;;;;;42.10;21.65;;;16.90;87.10;;;;;;5055418;28;20021;-17
2022/10/22 05:14:06;;;;;;;34.08;19.85;;;16.90;87.50;;;;;;5055666;28;20025;-15
2022/10/22 05:16:33;;;;;;;29.38;17.00;;;16.80;87.50;;;;;;5054120;28;20443;-17
2022/10/22 05:19:01;;;;;;;27.38;18.52;;;16.80;87.40;;;;;;5054983;28;20481;-16
2022/10/22 05:21:27;;;;;;;29.92;17.70;;;16.80;87.40;;;;;;5055543;28;20021;-16
2022/10/22 05:23:55;;;;;;;30.20;17.88;;;16.80;87.10;;;;;;5055405;28;20035;-18
2022/10/22 05:26:22;;;;;;;33.00;18.02;;;16.80;87.10;;;;;;5055120;28;20500;-16
2022/10/22 05:28:49;;;;;;;36.15;19.02;;;16.90;87.30;;;;;;5054805;28;20040;-17
2022/10/22 05:31:16;;;;;;;32.88;17.85;;;16.90;87.20;;;;;;5054996;28;20025;-16
2022/10/22 05:33:44;;;;;;;29.30;18.98;;;16.80;87.30;;;;;;5055299;28;20024;-16
2022/10/22 05:36:14;;;;;;;29.25;19.02;;;16.80;87.00;;;;;;5055094;28;20075;-15
2022/10/22 05:38:40;;;;;;;37.28;21.60;;;16.90;86.90;;;;;;5054893;28;20087;-15
2022/10/22 05:41:15;;;;;;;29.70;17.40;;;16.90;86.90;;;;;;5054914;28;20384;-15
2022/10/22 05:43:42;;;;;;;26.90;17.67;;;16.80;86.80;;;;;;5055291;28;20021;-16
2022/10/22 05:46:14;;;;;;;34.03;19.55;;;16.80;86.90;;;;;;5055043;28;20025;-15
2022/10/22 05:48:40;;;;;;;32.78;19.80;;;16.90;87.10;;;;;;5054937;28;20031;-15
2022/10/22 05:51:12;;;;;;;33.95;19.42;;;16.80;87.10;;;;;;5054469;28;20036;-16
2022/10/22 05:53:41;;;;;;;30.60;17.92;;;16.80;86.90;;;;;;5054864;28;20033;-15
2022/10/22 05:56:15;;;;;;;30.75;18.42;;;16.90;87.00;;;;;;5054623;28;20032;-14
2022/10/22 05:58:42;;;;;;;29.13;18.75;;;16.80;86.70;;;;;;5054594;28;20485;-15
2022/10/22 06:01:15;;;;;;;34.35;19.90;;;16.80;87.00;;;;;;5054307;28;20521;-15
2022/10/22 06:03:41;;;;;;;28.17;17.13;;;16.80;87.00;;;;;;5054810;28;20085;-15
2022/10/22 06:06:26;;;;;;;31.65;19.00;;;16.90;86.80;;;;;;5054786;28;20028;-15
2022/10/22 06:08:53;;;;;;;30.73;19.10;;;16.90;86.70;;;;;;5052863;28;20489;-16
2022/10/22 06:11:21;;;;;;;35.35;19.55;;;16.90;87.00;;;;;;5054414;28;20021;-16
2022/10/22 06:13:48;;;;;;;31.90;18.65;;;16.90;86.90;;;;;;5054217;28;20025;-16
2022/10/22 06:16:14;;;;;;;28.73;18.13;;;16.90;86.70;;;;;;5054465;28;20025;-17
2022/10/22 06:18:40;;;;;;;30.73;20.17;;;16.90;86.90;;;;;;5054051;28;20170;-16
2022/10/22 06:21:11;;;;;;;35.08;20.48;;;16.90;86.80;;;;;;5053826;28;20033;-16
2022/10/22 06:23:39;;;;;;;34.03;19.42;;;16.90;86.90;;;;;;5054618;28;20017;-16
2022/10/22 06:26:06;;;;;;;40.25;22.58;;;16.90;86.90;;;;;;5053853;28;20358;-15
2022/10/22 06:28:32;;;;;;;35.63;21.13;;;16.90;87.00;;;;;;5054186;28;20500;-15
2022/10/22 06:31:00;;;;;;;34.25;19.92;;;16.90;87.20;;;;;;5053796;28;20500;-15
2022/10/22 06:33:27;;;;;;;39.17;21.92;;;17.00;87.30;;;;;;5054069;28;20025;-17
2022/10/22 06:35:53;;;;;;;33.50;21.40;;;17.00;87.30;;;;;;5053623;28;20049;-17
2022/10/22 06:38:19;;;;;;;39.63;22.95;;;17.00;87.50;;;;;;5053664;28;20032;-16
2022/10/22 06:40:45;;;;;;;34.97;23.20;;;17.00;87.40;;;;;;5053912;28;20036;-16
2022/10/22 06:43:13;;;;;;;41.15;23.42;;;17.00;87.50;;;;;;5053425;28;20036;-15
2022/10/22 06:45:39;;;;;;;36.55;21.33;;;17.00;87.50;;;;;;5053605;28;20028;-16
2022/10/22 06:48:06;;;;;;;35.10;20.40;;;17.00;87.70;;;;;;5053938;28;20021;-16
2022/10/22 06:50:34;;;;;;;36.60;22.02;;;17.10;87.50;;;;;;5054153;28;20056;-16
2022/10/22 06:53:00;;;;;;;33.42;21.85;;;17.10;87.40;;;;;;5053440;28;20094;-16
2022/10/22 06:55:26;;;;;;;33.67;20.30;;;17.20;87.40;;;;;;5053680;28;20112;-16
2022/10/22 06:57:53;;;;;;;29.85;19.27;;;17.20;87.30;;;;;;5053705;28;20439;-16
2022/10/22 07:00:20;;;;;;;31.75;20.15;;;17.20;87.20;;;;;;5053632;28;20143;-18
2022/10/22 07:02:51;;;;;;;34.53;20.58;;;17.20;87.10;;;;;;5053338;28;20040;-16
2022/10/22 07:05:18;;;;;;;38.03;22.67;;;17.30;87.10;;;;;;5053532;28;20118;-16
2022/10/22 07:07:44;;;;;;;31.98;19.92;;;17.40;87.20;;;;;;5053068;28;20123;-16
2022/10/22 07:10:10;;;;;;;33.85;20.27;;;17.40;87.00;;;;;;5053396;28;20116;-15
2022/10/22 07:12:36;;;;;;;34.38;20.75;;;17.40;86.80;;;;;;5053450;28;20029;-18
2022/10/22 07:15:02;;;;;;;30.63;18.08;;;17.50;86.60;;;;;;5052976;28;20437;-16
2022/10/22 07:17:28;;;;;;;28.25;17.92;;;17.60;86.40;;;;;;5053314;28;20032;-17
2022/10/22 07:19:54;;;;;;;27.08;17.50;;;17.60;86.30;;;;;;5053453;28;20021;-16
2022/10/22 07:22:20;;;;;;;26.65;16.90;;;17.60;86.20;;;;;;5053250;28;20027;-17
2022/10/22 07:24:46;;;;;;;27.70;17.02;;;17.70;86.00;;;;;;5053096;28;20013;-16
2022/10/22 07:27:12;;;;;;;23.90;15.43;;;17.80;85.80;;;;;;5053214;28;20036;-16
2022/10/22 07:29:38;;;;;;;30.50;17.83;;;17.80;85.40;;;;;;5052951;28;20435;-16
2022/10/22 07:32:04;;;;;;;31.38;20.58;;;17.80;85.30;;;;;;5052921;28;20056;-16
2022/10/22 07:34:30;;;;;;;32.40;19.20;;;17.80;85.20;;;;;;5052920;28;20084;-16
2022/10/22 07:36:56;;;;;;;25.67;17.30;;;17.90;85.20;;;;;;5051329;28;20103;-17
2022/10/22 07:39:24;;;;;;;30.25;17.92;;;17.90;84.90;;;;;;5053020;28;20029;-18
2022/10/22 07:41:51;;;;;;;31.38;17.63;;;17.90;85.20;;;;;;5053116;28;20076;-17
2022/10/22 07:44:17;;;;;;;22.83;14.43;;;17.90;85.40;;;;;;5053202;28;20032;-17
2022/10/22 07:46:43;;;;;;;29.67;19.38;;;18.00;85.00;;;;;;5052912;28;20053;-16
2022/10/22 07:49:09;;;;;;;26.63;17.05;;;18.10;85.30;;;;;;5053068;28;20069;-17
2022/10/22 07:51:35;;;;;;;27.67;16.02;;;18.20;85.30;;;;;;5053416;28;20025;-16
2022/10/22 07:54:01;;;;;;;31.25;18.25;;;18.30;85.00;;;;;;5052849;28;20107;-16
2022/10/22 07:56:27;;;;;;;29.80;17.73;;;18.40;85.10;;;;;;5052833;28;20032;-16
2022/10/22 07:58:52;;;;;;;33.38;18.65;;;18.60;84.80;;;;;;5052482;28;20044;-16
2022/10/22 08:01:18;;;;;;;22.35;15.32;;;18.70;84.60;;;;;;5052625;28;20022;-16
2022/10/22 08:03:44;;;;;;;27.55;18.13;;;18.80;84.40;;;;;;5052677;28;20115;-16
2022/10/22 08:06:13;;;;;;;29.55;17.27;;;18.90;84.40;;;;;;5052623;28;20025;-16
2022/10/22 08:08:40;;;;;;;29.02;16.45;;;19.00;84.00;;;;;;5052651;28;20025;-15
2022/10/22 08:11:06;;;;;;;27.95;15.43;;;19.20;83.50;;;;;;5052562;28;20591;-14
2022/10/22 08:13:32;;;;;;;30.58;18.52;;;19.20;83.10;;;;;;5052890;28;20381;-14
2022/10/22 08:16:00;;;;;;;24.55;15.88;;;19.30;82.40;;;;;;5052899;28;20036;-16
2022/10/22 08:18:26;;;;;;;21.67;14.90;;;19.30;82.60;;;;;;5053847;28;20516;-16
2022/10/22 08:20:53;;;;;;;25.15;16.23;;;19.40;82.70;;;;;;5056479;28;20033;-24
2022/10/22 08:23:19;;;;;;;25.42;15.82;;;19.40;82.50;;;;;;5057141;28;20110;-16
2022/10/22 08:25:44;;;;;;;24.40;15.00;;;19.40;81.70;;;;;;5056546;28;20453;-16
2022/10/22 08:28:11;;;;;;;24.25;15.00;;;19.40;82.10;;;;;;5056212;28;20017;-16
2022/10/22 08:30:37;;;;;;;20.95;14.02;;;19.40;82.40;;;;;;5056743;28;20025;-16
2022/10/22 08:33:05;;;;;;;23.50;15.10;;;19.40;82.10;;;;;;5056147;28;20354;-15
2022/10/22 08:35:31;;;;;;;23.15;14.75;;;19.40;82.20;;;;;;5056180;28;20500;-15
2022/10/22 08:37:57;;;;;;;25.52;16.42;;;19.30;81.70;;;;;;5054700;28;20033;-15
2022/10/22 08:40:30;;;;;;;24.40;15.80;;;19.40;81.70;;;;;;5055820;28;20395;-16
2022/10/22 08:43:08;;;;;;;;;;;19.50;81.60;;;;;;5054989;28;20029;-16
2022/10/22 08:45:52;;;;;;;20.20;14.15;;;19.50;81.40;;;;;;5056184;28;19999;-15
2022/10/22 08:48:41;;;;;;;23.60;14.35;;;19.60;80.90;;;;;;5056203;28;20043;-16
2022/10/22 08:51:14;;;;;;;20.70;13.70;;;19.70;80.10;;;;;;5055624;28;20035;-17
2022/10/22 08:54:21;;;;;;;20.33;14.30;;;19.70;80.20;;;;;;5056239;28;20112;-16
2022/10/22 08:57:01;;;;;;;20.52;13.13;;;19.80;79.70;;;;;;5038087;28;20045;-16
2022/10/22 08:59:36;;;;;;;23.00;14.43;;;19.90;79.90;;;;;;5055535;28;20036;-16
2022/10/22 09:02:12;;;;;;;23.70;15.35;;;19.90;79.20;;;;;;5055607;28;20055;-15
2022/10/22 09:04:46;;;;;;;21.95;14.90;;;19.90;78.70;;;;;;5055904;28;20037;-16
2022/10/22 09:07:12;;;;;;;29.25;14.32;;;20.00;79.20;;;;;;5055577;28;20033;-16
2022/10/22 09:09:46;;;;;;;21.77;13.40;;;20.10;79.10;;;;;;5055701;28;20112;-15
2022/10/22 09:12:17;;;;;;;19.30;13.70;;;20.20;78.80;;;;;;5055476;28;20033;-16
2022/10/22 09:14:43;;;;;;;24.85;15.13;;;20.40;78.60;;;;;;5055429;28;20380;-15
2022/10/22 09:17:12;;;;;;;21.52;13.77;;;20.50;78.60;;;;;;5055024;28;20516;-15
2022/10/22 09:19:53;;;;;;;20.85;13.63;;;20.60;77.90;;;;;;5055244;28;20033;-15
2022/10/22 09:22:43;;;;;;;19.67;13.32;;;20.90;78.20;;;;;;5055617;28;20051;-15
2022/10/22 09:25:21;;;;;;;23.83;13.80;;;21.10;75.40;;;;;;5044549;28;20037;-14
2022/10/22 09:27:49;;;;;;;22.33;12.40;;;21.20;76.30;;;;;;5055819;28;20024;-16
2022/10/22 09:30:25;;;;;;;19.63;13.27;;;21.30;76.00;;;;;;5054744;28;20459;-16
2022/10/22 09:32:59;;;;;;;20.30;13.63;;;21.30;75.80;;;;;;5055742;28;20431;-15
2022/10/22 09:35:25;;;;;;;19.00;12.95;;;21.30;76.40;;;;;;5055290;28;20077;-15
2022/10/22 09:37:56;;;;;;;18.67;12.98;;;21.40;76.30;;;;;;5055473;28;20032;-15
2022/10/22 09:40:23;;;;;;;21.98;13.93;;;21.30;74.60;;;;;;5037064;28;20116;-15
2022/10/22 09:42:49;;;;;;;21.30;14.30;;;21.40;75.10;;;;;;5055269;28;20024;-17
2022/10/22 09:45:22;;;;;;;26.30;12.82;;;21.20;75.70;;;;;;5055079;28;20115;-17
2022/10/22 09:47:48;;;;;;;24.13;14.65;;;21.20;76.40;;;;;;5055386;28;20063;-16
2022/10/22 09:50:19;;;;;;;33.17;15.43;;;21.10;78.30;;;;;;5054658;28;20060;-16
2022/10/22 09:52:53;;;;;;;24.88;16.15;;;20.90;79.00;;;;;;5145021;22;20060;-18
2022/10/22 09:55:19;;;;;;;21.27;13.63;;;20.50;79.80;;;;;;5074641;28;20052;-14
2022/10/22 09:57:57;;;;;;;27.17;15.80;;;20.30;80.20;;;;;;5075169;28;20056;-15
2022/10/22 10:00:25;;;;;;;23.80;14.32;;;20.10;81.10;;;;;;5075214;28;20029;-18
2022/10/22 10:02:57;;;;;;;25.23;16.35;;;19.90;81.70;;;;;;5074663;28;20025;-16
2022/10/22 10:05:29;;;;;;;31.42;17.10;;;19.80;82.50;;;;;;5074763;28;20052;-16
2022/10/22 10:07:56;;;;;;;32.27;19.63;;;19.70;82.90;;;;;;5074315;28;20498;-15
2022/10/22 10:10:44;;;;;;;26.75;17.73;;;19.70;83.20;;;;;;5074338;28;20029;-16
2022/10/22 10:13:29;;;;;;;20.90;14.88;;;19.90;83.60;;;;;;5074078;28;20082;-17
2022/10/22 10:16:27;;;;;;;25.77;17.00;;;19.90;83.30;;;;;;5074711;28;20020;-15
2022/10/22 10:19:15;;;;;;;27.52;17.67;;;19.90;84.20;;;;;;5062469;28;20561;-16
2022/10/22 10:22:18;;;;;;;20.45;14.65;;;20.00;83.80;;;;;;5074472;28;20029;-15
2022/10/22 10:25:03;;;;;;;24.17;15.18;;;20.00;83.40;;;;;;5074218;28;20503;-16
2022/10/22 10:27:43;;;;;;;22.67;13.85;;;19.90;83.00;;;;;;5074060;28;20078;-18
2022/10/22 10:30:20;;;;;;;25.38;15.00;;;20.00;82.90;;;;;;5073963;28;20039;-16
2022/10/22 10:32:55;;;;;;;20.40;13.98;;;19.90;82.70;;;;;;5073946;28;20060;-19
2022/10/22 10:35:48;;;;;;;20.08;14.65;;;19.90;82.60;;;;;;5074344;28;20095;-16
2022/10/22 10:38:41;;;;;;;21.37;13.47;;;20.00;82.80;;;;;;5074151;28;20119;-17
2022/10/22 10:41:30;;;;;;;20.92;13.05;;;19.90;82.40;;;;;;5073252;28;20040;-17
2022/10/22 10:44:33;;;;;;;19.67;13.10;;;20.00;82.60;;;;;;5073694;28;20028;-16
2022/10/22 10:47:29;;;;;;;18.55;12.25;;;20.10;82.50;;;;;;5073432;28;20036;-16
2022/10/22 10:50:15;;;;;;;22.08;12.95;;;20.30;81.90;;;;;;5073920;28;20029;-17
2022/10/22 10:52:58;;;;;;;21.45;12.88;;;20.40;81.70;;;;;;5073440;28;20045;-16
2022/10/22 10:55:48;;;;;;;18.37;12.17;;;20.40;81.30;;;;;;5074439;28;20090;-17
2022/10/22 10:58:27;;;;;;;21.60;11.48;;;20.60;81.20;;;;;;5073781;28;20818;-14
2022/10/22 11:01:07;;;;;;;14.40;10.10;;;20.60;79.60;;;;;;5073210;28;20029;-16
2022/10/22 11:03:39;;;;;;;16.85;10.48;;;20.50;80.20;;;;;;5073743;28;20025;-16
2022/10/22 11:06:10;;;;;;;15.88;10.48;;;20.40;80.20;;;;;;5073385;28;20028;-18
2022/10/22 11:08:48;;;;;;;16.63;10.27;;;20.30;80.10;;;;;;5073234;28;20020;-15
2022/10/22 11:11:25;;;;;;;17.17;10.48;;;20.20;80.20;;;;;;5073671;28;20032;-18
2022/10/22 11:14:00;;;;;;;21.58;13.55;;;20.10;80.40;;;;;;5073626;28;20028;-16
2022/10/22 11:16:55;;;;;;;18.08;13.27;;;19.90;80.70;;;;;;5073886;28;20023;-16
2022/10/22 11:19:36;;;;;;;24.10;13.15;;;19.70;80.90;;;;;;5051067;28;20037;-17
2022/10/22 11:22:29;;;;;;;19.73;13.32;;;19.40;81.50;;;;;;5051335;28;20032;-15
2022/10/22 11:25:05;;;;;;;16.48;11.35;;;19.10;82.20;;;;;;5042797;28;20021;-14
2022/10/22 11:27:36;;;;;;;21.73;14.10;;;18.90;82.70;;;;;;5051516;28;20451;-14
2022/10/22 11:30:12;;;;;;;20.05;13.52;;;18.70;84.40;;;;;;5051414;28;20029;-15
2022/10/22 11:32:41;;;;;;;22.23;14.05;;;18.60;84.10;;;;;;5051001;28;20052;-15
2022/10/22 11:35:15;;;;;;;17.88;11.73;;;18.60;84.60;;;;;;5051394;28;20073;-14
2022/10/22 11:37:44;;;;;;;19.55;12.52;;;18.60;84.50;;;;;;5051366;28;20132;-14
2022/10/22 11:40:21;;;;;;;20.63;13.82;;;18.60;84.80;;;;;;5050862;28;20116;-15
2022/10/22 11:42:54;;;;;;;23.30;14.18;;;18.60;84.40;;;;;;5050955;28;20497;-16
2022/10/22 11:45:22;;;;;;;18.02;13.23;;;18.60;84.20;;;;;;5050775;28;20119;-15
2022/10/22 11:48:15;;;;;;;18.27;12.40;;;18.60;84.30;;;;;;5050884;28;20491;-14
2022/10/22 11:50:47;;;;;;;19.27;12.70;;;18.60;84.30;;;;;;5050865;28;20025;-14
2022/10/22 11:53:13;;;;;;;23.55;14.60;;;18.60;84.30;;;;;;5053038;28;20060;-14
2022/10/22 11:55:50;;;;;;;20.40;13.35;;;18.50;84.30;;;;;;5065021;28;20036;-15
2022/10/22 11:58:30;;;;;;;20.27;13.98;;;18.50;84.20;;;;;;5076895;28;20149;-14
2022/10/22 12:01:12;;;;;;;17.00;12.50;;;18.40;84.40;;;;;;5076964;28;20090;-14
2022/10/22 12:03:57;;;;;;;24.17;15.05;;;18.40;84.40;;;;;;5077255;28;20078;-15
2022/10/22 12:06:27;;;;;;;22.05;14.77;;;18.40;84.40;;;;;;5076767;28;20028;-15
2022/10/22 12:08:53;;;;;;;22.83;14.20;;;18.40;84.40;;;;;;5076456;28;20025;-15
2022/10/22 12:11:39;;;;;;;21.17;15.52;;;18.40;84.40;;;;;;5076530;28;20032;-16
2022/10/22 12:14:31;;;;;;;20.88;14.07;;;18.40;85.60;;;;;;5076932;28;20047;-14
2022/10/22 12:17:06;;;;;;;21.45;13.52;;;18.40;84.70;;;;;;5076689;28;20078;-14
2022/10/22 12:19:42;;;;;;;21.88;14.18;;;18.40;84.60;;;;;;5076692;28;20074;-15
2022/10/22 12:22:17;;;;;;;20.67;14.32;;;18.30;88.80;;;;;;5076698;28;20036;-15
2022/10/22 12:24:46;;;;;;;23.52;13.65;;;18.20;87.90;;;;;;5076258;28;20024;-16
2022/10/22 12:27:22;;;;;;;21.35;14.70;;;18.10;85.30;;;;;;5076201;28;20074;-15
2022/10/22 12:29:54;;;;;;;22.20;14.23;;;18.00;85.70;;;;;;5076252;28;20509;-14
2022/10/22 12:32:20;;;;;;;24.65;15.10;;;18.00;86.20;;;;;;5076844;28;20483;-15
2022/10/22 12:34:49;;;;;;;21.15;13.82;;;18.00;86.40;;;;;;5074892;28;20028;-15
2022/10/22 12:37:17;;;;;;;22.33;13.85;;;18.00;85.90;;;;;;5074922;28;20356;-14
2022/10/22 12:39:45;;;;;;;18.80;11.98;;;18.00;85.80;;;;;;5075943;28;20032;-15
2022/10/22 12:42:17;;;;;;;19.60;11.52;;;18.00;86.60;;;;;;5076521;28;20051;-15
2022/10/22 12:44:45;;;;;;;16.38;11.93;;;17.90;86.70;;;;;;5076165;28;20147;-15
2022/10/22 12:47:16;;;;;;;20.73;11.20;;;18.00;86.70;;;;;;5075997;28;20021;-14
2022/10/22 12:49:48;;;;;;;17.95;11.52;;;18.10;86.80;;;;;;5076215;28;20398;-15